Time;durP1;ratioP1;P1;durP2;ratioP2;P2;SDS_P1;SDS_P2;PMS_P1;PMS_P2;Temp;Humidity;BMP_temperature;BMP_pressure;BME280_temperature;BME280_humidity;BME280_pressure;Samples;Min_cycle;Max_cycle;Signal;HPM_P1;HPM_P2
2023/07/04 03:18:15;;;;;;;9.38;2.20;;;20.00;84.90;;;;;;6123772;22;88809;-64
2023/07/04 03:20:41;;;;;;;5.85;1.80;;;20.00;84.70;;;;;;6125399;23;87408;-64
2023/07/04 03:23:07;;;;;;;5.88;1.63;;;20.00;84.20;;;;;;6125051;23;87133;-63
2023/07/04 03:25:34;;;;;;;6.18;2.03;;;20.00;84.20;;;;;;6125566;23;86608;-64
2023/07/04 03:27:59;;;;;;;8.35;1.77;;;20.00;84.50;;;;;;6126345;23;87629;-63
2023/07/04 03:30:25;;;;;;;5.50;2.05;;;20.00;84.60;;;;;;6126956;23;87661;-65
2023/07/04 03:32:51;;;;;;;5.07;1.90;;;20.00;84.40;;;;;;6125631;23;89023;-66
2023/07/04 03:35:16;;;;;;;6.47;1.90;;;20.00;84.20;;;;;;6127706;23;87675;-65
2023/07/04 03:37:42;;;;;;;8.57;1.95;;;20.00;83.60;;;;;;6128229;23;88160;-64
2023/07/04 03:40:11;;;;;;;5.35;2.00;;;20.00;83.40;;;;;;6127286;23;87499;-65
2023/07/04 03:42:39;;;;;;;7.03;2.05;;;20.10;82.80;;;;;;6128784;23;87251;-65
2023/07/04 03:45:06;;;;;;;5.88;1.85;;;20.10;83.30;;;;;;6128514;23;87409;-65
2023/07/04 03:47:32;;;;;;;5.03;1.50;;;20.10;84.80;;;;;;6128475;23;89999;-65
2023/07/04 03:49:59;;;;;;;7.78;2.13;;;20.10;84.20;;;;;;6128430;23;86943;-65
2023/07/04 03:52:24;;;;;;;5.70;1.70;;;20.10;86.50;;;;;;6128019;23;87509;-64
2023/07/04 03:54:50;;;;;;;6.03;2.00;;;20.10;85.60;;;;;;6128480;23;87630;-64
2023/07/04 03:57:16;;;;;;;6.18;2.45;;;20.00;87.20;;;;;;6126479;23;89157;-65
2023/07/04 03:59:42;;;;;;;6.43;1.50;;;20.00;87.20;;;;;;6125713;23;89579;-64
2023/07/04 04:02:09;;;;;;;7.70;1.90;;;19.90;87.20;;;;;;6101575;23;87441;-71
2023/07/04 04:04:39;;;;;;;5.75;1.38;;;19.80;89.20;;;;;;6128161;23;87363;-72
2023/07/04 04:07:07;;;;;;;5.38;1.52;;;19.70;88.60;;;;;;6126681;23;89897;-72
2023/07/04 04:09:33;;;;;;;4.22;1.88;;;19.70;88.20;;;;;;6124713;23;88367;-71
2023/07/04 04:11:59;;;;;;;4.20;1.38;;;19.70;88.70;;;;;;6127560;23;87160;-72
2023/07/04 04:14:24;;;;;;;5.07;1.65;;;19.70;88.40;;;;;;6127963;23;86631;-72
2023/07/04 04:16:50;;;;;;;6.85;1.52;;;19.60;88.80;;;;;;6101092;23;89579;-72
2023/07/04 04:19:16;;;;;;;7.18;1.52;;;19.50;89.70;;;;;;6128040;23;87677;-70
2023/07/04 04:21:41;;;;;;;6.35;1.23;;;19.50;90.60;;;;;;6126695;23;88475;-70
2023/07/04 04:24:07;;;;;;;5.70;1.35;;;19.50;90.90;;;;;;6128326;23;87423;-71
2023/07/04 04:26:39;;;;;;;6.43;1.40;;;19.50;90.40;;;;;;6127695;23;87510;-73
2023/07/04 04:29:06;;;;;;;7.53;1.60;;;19.50;90.80;;;;;;6127388;23;87999;-72
2023/07/04 04:31:37;;;;;;;7.55;1.40;;;19.50;91.00;;;;;;6128161;23;87340;-71
2023/07/04 04:34:04;;;;;;;5.78;1.50;;;19.50;91.40;;;;;;6128147;23;86978;-70
2023/07/04 04:36:30;;;;;;;4.93;1.30;;;19.50;92.10;;;;;;6128365;23;87292;-68
2023/07/04 04:38:57;;;;;;;5.22;1.55;;;19.50;92.10;;;;;;6128783;23;87822;-70
2023/07/04 04:41:22;;;;;;;6.32;1.88;;;19.50;92.20;;;;;;6127598;23;87749;-68
2023/07/04 04:43:50;;;;;;;6.22;1.88;;;19.50;92.90;;;;;;6127372;23;87569;-70
2023/07/04 04:46:16;;;;;;;6.38;1.98;;;19.50;92.00;;;;;;6127156;23;88714;-68
2023/07/04 04:48:42;;;;;;;7.00;2.53;;;19.50;91.50;;;;;;6127375;23;88705;-69
2023/07/04 04:51:12;;;;;;;8.50;2.70;;;19.50;91.90;;;;;;6127581;23;86937;-70
2023/07/04 04:53:40;;;;;;;11.50;2.22;;;19.60;92.30;;;;;;6128381;23;87033;-70
2023/07/04 04:56:09;;;;;;;9.80;2.90;;;19.60;93.20;;;;;;6124570;23;88249;-70
2023/07/04 04:58:36;;;;;;;9.98;2.45;;;19.60;93.70;;;;;;6125668;23;87765;-71
2023/07/04 05:01:23;;;;;;;14.43;2.80;;;19.60;93.90;;;;;;6127012;23;87254;-71
2023/07/04 05:03:54;;;;;;;11.43;2.60;;;19.60;94.50;;;;;;6125849;23;86493;-70
2023/07/04 05:06:25;;;;;;;7.65;2.53;;;19.60;93.80;;;;;;6126599;23;88121;-71
2023/07/04 05:08:51;;;;;;;8.70;2.55;;;19.50;93.90;;;;;;6124880;23;87740;-72
2023/07/04 05:11:18;;;;;;;11.30;2.92;;;19.50;94.20;;;;;;6126458;23;88170;-69
2023/07/04 05:13:47;;;;;;;13.48;2.80;;;19.50;94.40;;;;;;6126449;23;87546;-68
2023/07/04 05:16:15;;;;;;;8.32;2.55;;;19.50;95.20;;;;;;6125980;23;87436;-69
2023/07/04 05:18:42;;;;;;;13.27;3.78;;;19.40;95.70;;;;;;6127109;23;88285;-69
2023/07/04 05:21:10;;;;;;;9.05;2.45;;;19.40;96.30;;;;;;6125878;23;87010;-70
2023/07/04 05:23:38;;;;;;;7.20;2.10;;;19.40;97.20;;;;;;6126105;23;87509;-71
2023/07/04 05:26:13;;;;;;;9.00;2.05;;;19.50;97.40;;;;;;6125771;23;87972;-71
2023/07/04 05:28:39;;;;;;;4.70;1.55;;;19.70;96.10;;;;;;6124811;23;88037;-73
2023/07/04 05:31:10;;;;;;;9.52;1.58;;;19.80;95.10;;;;;;6119351;23;87583;-69
2023/07/04 05:33:36;;;;;;;6.05;1.70;;;19.80;94.90;;;;;;6123243;23;87568;-72
2023/07/04 05:36:10;;;;;;;6.07;1.42;;;19.80;96.10;;;;;;6123941;23;89142;-71
2023/07/04 05:38:37;;;;;;;4.55;1.63;;;19.90;95.70;;;;;;6127455;23;88959;-72
2023/07/04 05:41:08;;;;;;;7.38;1.63;;;20.00;95.80;;;;;;6127135;23;87205;-70
2023/07/04 05:43:33;;;;;;;5.68;1.52;;;20.00;95.90;;;;;;6127115;23;87324;-73
2023/07/04 05:45:59;;;;;;;4.20;1.50;;;20.00;95.40;;;;;;6127794;23;87635;-73
2023/07/04 05:48:25;;;;;;;4.85;1.38;;;20.00;94.60;;;;;;6126585;23;87305;-69
2023/07/04 05:50:58;;;;;;;7.20;1.63;;;20.10;94.20;;;;;;6127516;23;87351;-71
2023/07/04 05:53:26;;;;;;;4.03;1.33;;;20.10;93.90;;;;;;6128815;23;86173;-69
2023/07/04 05:55:52;;;;;;;5.68;1.60;;;20.20;94.90;;;;;;6127535;23;87664;-71
2023/07/04 05:58:19;;;;;;;6.00;1.75;;;20.50;94.00;;;;;;6126876;23;87337;-69
2023/07/04 06:00:47;;;;;;;7.43;1.88;;;20.90;92.90;;;;;;6127073;23;87967;-71
2023/07/04 06:03:17;;;;;;;6.53;1.70;;;21.50;92.90;;;;;;6127874;23;87394;-68
2023/07/04 06:05:44;;;;;;;5.57;2.05;;;22.20;91.00;;;;;;6127472;23;87508;-69
2023/07/04 06:08:10;;;;;;;5.22;1.75;;;22.50;89.40;;;;;;6126415;23;88003;-69
2023/07/04 06:10:35;;;;;;;7.05;2.17;;;22.90;86.20;;;;;;6127130;23;88223;-71
2023/07/04 06:13:01;;;;;;;6.15;2.30;;;22.80;86.30;;;;;;6127714;23;87301;-71
2023/07/04 06:15:28;;;;;;;8.90;2.55;;;22.70;85.80;;;;;;6127113;23;87521;-70
2023/07/04 06:17:54;;;;;;;5.95;2.03;;;22.50;85.90;;;;;;6127093;23;88328;-72
2023/07/04 06:20:21;;;;;;;5.60;2.40;;;22.20;85.90;;;;;;6126322;23;87277;-70
2023/07/04 06:22:48;;;;;;;9.52;2.65;;;21.90;86.40;;;;;;6127789;23;87078;-71
2023/07/04 06:25:13;;;;;;;11.63;2.60;;;21.60;88.60;;;;;;6126250;23;88485;-71
2023/07/04 06:27:41;;;;;;;7.18;2.70;;;21.40;89.10;;;;;;6127248;23;88135;-71
2023/07/04 06:30:08;;;;;;;11.23;2.83;;;21.30;90.10;;;;;;6126643;23;87396;-71
2023/07/04 06:32:34;;;;;;;8.50;3.22;;;21.20;90.50;;;;;;6128057;23;87072;-71
2023/07/04 06:35:00;;;;;;;9.52;2.38;;;21.00;90.60;;;;;;6127952;23;87989;-69
2023/07/04 06:37:26;;;;;;;11.40;2.20;;;20.90;90.60;;;;;;6128754;23;88304;-71
2023/07/04 06:39:52;;;;;;;16.80;2.00;;;20.80;91.40;;;;;;6128178;23;87185;-72
2023/07/04 06:42:17;;;;;;;7.60;1.70;;;20.60;91.70;;;;;;6129578;23;86712;-72
2023/07/04 06:44:44;;;;;;;6.05;1.77;;;20.80;92.00;;;;;;6127721;23;87685;-69
2023/07/04 06:47:10;;;;;;;9.40;2.08;;;21.00;92.30;;;;;;6128438;23;88078;-70
2023/07/04 06:49:36;;;;;;;9.27;2.00;;;21.10;91.10;;;;;;6127907;23;88251;-72
2023/07/04 06:52:01;;;;;;;5.18;1.65;;;21.20;89.80;;;;;;6128714;23;87351;-70
2023/07/04 06:54:27;;;;;;;8.52;2.05;;;21.20;90.10;;;;;;6128731;23;88140;-71
2023/07/04 06:56:53;;;;;;;8.25;1.70;;;21.30;90.10;;;;;;6128443;23;87357;-70
2023/07/04 06:59:18;;;;;;;9.75;2.05;;;21.40;90.40;;;;;;6128043;23;86964;-68
2023/07/04 07:01:44;;;;;;;7.00;1.98;;;21.60;90.10;;;;;;6128373;23;87031;-69
2023/07/04 07:04:12;;;;;;;6.93;1.70;;;21.80;86.00;;;;;;6128443;23;87352;-70
2023/07/04 07:06:39;;;;;;;6.60;2.15;;;21.80;87.10;;;;;;6129128;23;87204;-69
2023/07/04 07:09:08;;;;;;;6.25;1.75;;;22.00;86.30;;;;;;6128159;23;87643;-68
2023/07/04 07:11:34;;;;;;;5.53;2.00;;;22.10;86.80;;;;;;6127657;23;87481;-72
2023/07/04 07:14:01;;;;;;;7.50;1.90;;;22.30;87.20;;;;;;6127531;23;88265;-69
2023/07/04 07:16:26;;;;;;;7.60;2.15;;;22.60;85.10;;;;;;6127799;23;89457;-70
2023/07/04 07:18:54;;;;;;;5.30;1.60;;;23.20;82.90;;;;;;6128302;23;87315;-70
2023/07/04 07:21:26;;;;;;;4.95;1.35;;;23.30;80.10;;;;;;6128215;23;87282;-71
2023/07/04 07:23:52;;;;;;;8.27;1.52;;;23.50;81.10;;;;;;6127570;23;87606;-68
2023/07/04 07:26:20;;;;;;;6.78;1.90;;;25.30;77.30;;;;;;6127932;23;87668;-68
2023/07/04 07:28:46;;;;;;;7.25;1.92;;;27.40;69.70;;;;;;6128061;23;87375;-70
2023/07/04 07:31:23;;;;;;;6.82;1.80;;;29.40;65.10;;;;;;6128652;23;86682;-72
2023/07/04 07:33:51;;;;;;;4.82;2.05;;;31.30;61.20;;;;;;6127939;23;87370;-67
2023/07/04 07:36:22;;;;;;;5.97;2.50;;;32.60;57.80;;;;;;6124557;23;87776;-70
2023/07/04 07:38:50;;;;;;;4.63;2.38;;;34.00;55.00;;;;;;6127624;23;88345;-70
2023/07/04 07:41:17;;;;;;;7.40;2.50;;;35.50;51.50;;;;;;6128285;23;87498;-71
2023/07/04 07:43:43;;;;;;;5.35;2.60;;;36.20;49.60;;;;;;6127275;23;88921;-72
2023/07/04 07:46:11;;;;;;;4.65;2.70;;;36.20;49.60;;;;;;6127006;23;88849;-71
2023/07/04 07:48:36;;;;;;;4.53;2.22;;;36.70;46.50;;;;;;6124318;23;87774;-73
2023/07/04 07:51:03;;;;;;;6.55;2.30;;;36.60;47.60;;;;;;6119483;23;87485;-73
2023/07/04 07:53:29;;;;;;;5.43;2.40;;;36.10;46.10;;;;;;6125588;23;88708;-68
2023/07/04 07:55:55;;;;;;;4.97;2.17;;;34.50;48.00;;;;;;6126090;23;87093;-68
2023/07/04 07:58:20;;;;;;;4.10;2.08;;;32.60;50.40;;;;;;6126532;23;87460;-68
2023/07/04 08:00:46;;;;;;;6.68;2.63;;;33.10;51.00;;;;;;6128348;23;87422;-68
2023/07/04 08:03:12;;;;;;;4.90;2.55;;;32.50;51.40;;;;;;6126873;23;88885;-71
2023/07/04 08:05:42;;;;;;;5.70;1.80;;;32.30;52.30;;;;;;6126654;23;88630;-70
2023/07/04 08:08:09;;;;;;;3.70;2.22;;;31.40;51.90;;;;;;6128500;23;87317;-69
2023/07/04 08:10:42;;;;;;;4.30;1.77;;;31.00;52.50;;;;;;6128442;23;87371;-70
2023/07/04 08:13:10;;;;;;;3.63;1.75;;;30.80;52.50;;;;;;6127930;23;88345;-70
2023/07/04 08:15:36;;;;;;;5.85;1.90;;;31.20;53.00;;;;;;6127572;23;87428;-70
2023/07/04 08:18:07;;;;;;;5.63;1.65;;;31.90;51.40;;;;;;6128135;23;87045;-70
2023/07/04 08:20:33;;;;;;;5.60;1.77;;;32.30;49.90;;;;;;6128409;23;86784;-68
2023/07/04 08:22:59;;;;;;;5.15;1.92;;;34.00;49.80;;;;;;6128011;23;87545;-71
2023/07/04 08:25:24;;;;;;;7.13;1.88;;;34.70;48.40;;;;;;6127570;23;87516;-70
2023/07/04 08:27:51;;;;;;;3.50;1.45;;;34.50;46.90;;;;;;6127734;23;88397;-69
2023/07/04 08:30:17;;;;;;;3.13;1.42;;;33.90;46.50;;;;;;6127713;23;87277;-68
2023/07/04 08:32:42;;;;;;;3.97;1.13;;;32.70;47.40;;;;;;6127636;23;87870;-69
2023/07/04 08:35:08;;;;;;;3.33;1.15;;;31.70;48.60;;;;;;6128139;23;87800;-68
2023/07/04 08:37:33;;;;;;;6.55;1.80;;;31.00;50.10;;;;;;6128416;23;87534;-71
2023/07/04 08:40:00;;;;;;;3.00;1.40;;;31.20;49.50;;;;;;6127945;23;87106;-69
2023/07/04 08:42:28;;;;;;;3.45;1.25;;;32.10;49.00;;;;;;6127612;23;88246;-69
2023/07/04 08:44:55;;;;;;;2.38;1.20;;;32.20;48.30;;;;;;6128384;23;86256;-68
2023/07/04 08:47:25;;;;;;;5.07;1.77;;;32.10;48.40;;;;;;6128503;23;87342;-69
2023/07/04 08:50:13;;;;;;;3.97;1.30;;;31.60;49.50;;;;;;6128288;23;87224;-67
2023/07/04 08:52:52;;;;;;;3.45;1.77;;;31.50;50.00;;;;;;6127413;23;89201;-68
2023/07/04 08:55:19;;;;;;;4.32;1.33;;;31.60;50.50;;;;;;6126612;23;89203;-68
2023/07/04 08:57:51;;;;;;;3.42;1.17;;;32.30;48.60;;;;;;6127851;23;87249;-68
2023/07/04 09:00:28;;;;;;;4.57;1.42;;;32.80;49.60;;;;;;6127891;23;87692;-70
2023/07/04 09:03:25;;;;;;;5.30;1.98;;;34.70;46.50;;;;;;6128029;23;88138;-69
2023/07/04 09:06:06;;;;;;;5.60;1.60;;;36.30;44.20;;;;;;6127310;23;87778;-69
2023/07/04 09:09:07;;;;;;;8.23;1.10;;;37.40;41.50;;;;;;6128459;23;87340;-68
2023/07/04 09:11:33;;;;;;;3.00;1.65;;;36.80;41.40;;;;;;6007235;23;86972;-70
2023/07/04 09:14:07;;;;;;;5.40;2.25;;;36.30;42.80;;;;;;6101386;23;88594;-69
2023/07/04 09:16:43;;;;;;;2.53;1.40;;;36.10;42.60;;;;;;6127836;23;87414;-67
2023/07/04 09:19:12;;;;;;;4.15;1.58;;;35.20;42.30;;;;;;6127365;23;88158;-69
2023/07/04 09:21:38;;;;;;;2.83;1.63;;;35.00;44.60;;;;;;6128322;23;87288;-68
2023/07/04 09:24:04;;;;;;;3.15;2.13;;;36.40;42.20;;;;;;6127104;23;87478;-69
2023/07/04 09:26:55;;;;;;;5.68;2.33;;;38.40;40.70;;;;;;6127496;23;88303;-69
2023/07/04 09:29:24;;;;;;;4.18;2.20;;;39.00;39.30;;;;;;6127690;23;87450;-68
2023/07/04 09:31:55;;;;;;;4.53;2.90;;;39.50;39.30;;;;;;6128159;23;87299;-69
2023/07/04 09:34:32;;;;;;;4.05;3.13;;;40.60;38.60;;;;;;6127398;23;88143;-70
2023/07/04 09:37:00;;;;;;;5.07;4.57;;;41.50;37.70;;;;;;6128401;23;87692;-69
2023/07/04 09:39:47;;;;;;;7.82;2.60;;;41.40;36.80;;;;;;6126580;23;87312;-69
2023/07/04 09:42:14;;;;;;;3.00;2.60;;;40.90;37.00;;;;;;6127110;23;87366;-70
2023/07/04 09:44:41;;;;;;;4.28;2.22;;;40.90;37.30;;;;;;6126305;23;89047;-68
2023/07/04 09:47:24;;;;;;;5.93;2.63;;;40.60;37.00;;;;;;6127402;23;88102;-69
2023/07/04 09:50:12;;;;;;;6.88;2.60;;;38.60;39.00;;;;;;6127611;23;87287;-71
2023/07/04 09:52:38;;;;;;;5.25;2.90;;;37.80;40.50;;;;;;6127937;23;87230;-69
2023/07/04 09:55:23;;;;;;;3.92;2.35;;;37.60;41.10;;;;;;6127413;23;87971;-71
2023/07/04 09:57:49;;;;;;;3.78;1.80;;;37.90;40.40;;;;;;6127266;23;87314;-70
2023/07/04 10:00:25;;;;;;;2.58;1.58;;;36.50;40.70;;;;;;6127642;23;87295;-73
2023/07/04 10:02:56;;;;;;;2.53;1.40;;;35.80;42.30;;;;;;6128086;23;86263;-71
2023/07/04 10:05:35;;;;;;;2.60;1.55;;;35.10;42.60;;;;;;6125806;23;87990;-71
2023/07/04 10:08:12;;;;;;;3.30;1.75;;;34.30;43.00;;;;;;6125878;23;87815;-72
2023/07/04 10:10:48;;;;;;;4.32;1.48;;;34.10;45.30;;;;;;6121402;23;88417;-70
2023/07/04 10:13:15;;;;;;;2.75;1.73;;;34.00;44.70;;;;;;6126191;23;87330;-72
2023/07/04 10:15:45;;;;;;;2.30;1.08;;;33.80;44.40;;;;;;6123783;23;88017;-72
2023/07/04 10:18:27;;;;;;;3.88;1.92;;;33.40;45.30;;;;;;6124799;23;87563;-70
2023/07/04 10:20:55;;;;;;;4.47;2.13;;;32.80;46.20;;;;;;6126380;23;87476;-70
2023/07/04 10:23:22;;;;;;;2.05;0.90;;;32.00;47.00;;;;;;6125861;23;87329;-70
2023/07/04 10:25:53;;;;;;;3.50;1.35;;;31.60;49.40;;;;;;6125309;23;87829;-71
2023/07/04 10:28:25;;;;;;;3.72;0.80;;;31.60;50.50;;;;;;6125907;23;87785;-71
2023/07/04 10:30:57;;;;;;;3.63;0.95;;;31.10;49.80;;;;;;6126319;23;87355;-69
2023/07/04 10:33:36;;;;;;;4.03;0.85;;;30.90;49.50;;;;;;6126742;23;87585;-69
2023/07/04 10:36:02;;;;;;;8.15;0.90;;;30.60;49.50;;;;;;6123702;23;88409;-70
2023/07/04 10:38:49;;;;;;;2.17;0.95;;;30.50;52.40;;;;;;6123472;23;90093;-69
2023/07/04 10:41:39;;;;;;;2.63;1.10;;;30.30;51.90;;;;;;6124174;23;87587;-69
2023/07/04 10:44:22;;;;;;;2.35;0.90;;;30.10;52.80;;;;;;6124000;23;87360;-67
2023/07/04 10:46:57;;;;;;;2.00;0.75;;;29.60;50.60;;;;;;6120056;23;88052;-68
2023/07/04 10:49:28;;;;;;;2.70;1.15;;;29.30;52.00;;;;;;6123803;23;88853;-68
2023/07/04 10:52:04;;;;;;;4.25;0.88;;;29.10;51.90;;;;;;6121340;23;87675;-69
2023/07/04 10:54:30;;;;;;;2.60;0.93;;;28.90;53.10;;;;;;6122870;23;86531;-70
2023/07/04 10:57:07;;;;;;;3.35;0.90;;;29.10;55.40;;;;;;6121734;23;88526;-69
2023/07/04 10:59:38;;;;;;;4.60;1.13;;;29.30;55.20;;;;;;6123085;23;87806;-70
2023/07/04 11:02:13;;;;;;;3.88;0.80;;;29.40;52.40;;;;;;6123522;23;88338;-71
2023/07/04 11:04:40;;;;;;;3.70;0.95;;;29.40;52.70;;;;;;6123106;23;87136;-71
2023/07/04 11:07:16;;;;;;;2.55;0.65;;;29.40;53.60;;;;;;6123225;23;88416;-71
2023/07/04 11:09:42;;;;;;;3.47;0.70;;;29.40;51.80;;;;;;6123405;23;87292;-70
2023/07/04 11:12:13;;;;;;;3.97;0.73;;;29.30;54.70;;;;;;6123909;23;87338;-69
2023/07/04 11:14:41;;;;;;;2.88;1.20;;;29.30;52.60;;;;;;6124554;23;87915;-70
2023/07/04 11:17:12;;;;;;;2.97;0.60;;;29.10;54.00;;;;;;6123402;22;88609;-69
2023/07/04 11:19:52;;;;;;;4.40;0.80;;;28.80;52.60;;;;;;6124322;23;87121;-70
2023/07/04 11:22:17;;;;;;;2.85;0.80;;;28.50;52.40;;;;;;6124002;23;87348;-69
2023/07/04 11:24:50;;;;;;;2.58;1.23;;;28.40;56.00;;;;;;6122016;23;87494;-68
2023/07/04 11:27:25;;;;;;;2.22;1.38;;;28.40;52.20;;;;;;6124230;23;89815;-70
2023/07/04 11:29:51;;;;;;;2.17;0.88;;;28.30;53.40;;;;;;6125795;23;88457;-69
2023/07/04 11:32:23;;;;;;;2.83;0.60;;;28.20;53.20;;;;;;6125837;23;87696;-69
2023/07/04 11:35:03;;;;;;;1.98;1.00;;;28.20;56.90;;;;;;6124294;23;87685;-69
2023/07/04 11:37:32;;;;;;;2.42;1.25;;;28.40;54.20;;;;;;6127652;23;87926;-68
2023/07/04 11:40:10;;;;;;;2.47;0.80;;;28.50;56.10;;;;;;6126560;23;88893;-68
2023/07/04 11:42:44;;;;;;;4.70;0.70;;;28.50;53.50;;;;;;6127728;23;87007;-69
2023/07/04 11:45:15;;;;;;;1.85;0.70;;;28.30;52.90;;;;;;6126782;23;88389;-70
2023/07/04 11:47:51;;;;;;;2.40;1.23;;;28.40;52.80;;;;;;6125072;23;88039;-70
2023/07/04 11:50:27;;;;;;;2.35;0.60;;;28.50;52.90;;;;;;6123038;23;88569;-70
2023/07/04 11:53:01;;;;;;;2.33;0.82;;;28.70;56.70;;;;;;6121438;23;88427;-73
2023/07/04 11:55:30;;;;;;;2.88;0.60;;;28.70;53.00;;;;;;6125587;23;87424;-69
2023/07/04 11:57:59;;;;;;;1.70;0.63;;;28.20;52.70;;;;;;6125716;23;88382;-67
2023/07/04 12:00:37;;;;;;;;;;;28.10;55.30;;;;;;6124987;23;87533;-70
2023/07/04 12:03:17;;;;;;;3.42;0.80;;;28.40;58.40;;;;;;6125188;23;87261;-68
2023/07/04 12:05:48;;;;;;;4.05;0.73;;;28.80;55.60;;;;;;6123626;23;87712;-69
2023/07/04 12:08:30;;;;;;;3.03;0.63;;;28.80;54.40;;;;;;6119215;23;87666;-68
2023/07/04 12:11:05;;;;;;;2.53;1.00;;;28.90;56.10;;;;;;6124560;23;88225;-68
2023/07/04 12:13:34;;;;;;;1.70;0.60;;;29.00;52.80;;;;;;6124706;23;87344;-70
2023/07/04 12:16:02;;;;;;;1.50;0.60;;;29.20;53.60;;;;;;6121092;23;87012;-69
2023/07/04 12:18:34;;;;;;;7.03;0.80;;;28.90;52.50;;;;;;6119294;23;88244;-70
2023/07/04 12:21:00;;;;;;;2.80;0.82;;;28.80;52.60;;;;;;6124225;23;87834;-69
2023/07/04 12:23:26;;;;;;;2.97;1.02;;;28.90;54.40;;;;;;6125777;23;87356;-68
2023/07/04 12:25:59;;;;;;;1.73;0.82;;;29.00;53.10;;;;;;6125571;23;87331;-69
2023/07/04 12:28:27;;;;;;;2.75;1.05;;;28.80;52.60;;;;;;6125686;23;87676;-70
2023/07/04 12:31:00;;;;;;;1.55;0.52;;;28.80;53.30;;;;;;6125160;23;88379;-69
2023/07/04 12:33:29;;;;;;;2.25;0.90;;;29.10;53.10;;;;;;6125459;23;87345;-70
2023/07/04 12:36:05;;;;;;;1.95;0.68;;;29.00;51.30;;;;;;6125560;23;86884;-69
2023/07/04 12:38:32;;;;;;;2.30;0.70;;;29.20;53.40;;;;;;6125721;23;87713;-70
2023/07/04 12:40:59;;;;;;;2.17;0.60;;;29.20;51.00;;;;;;6125805;23;87476;-68
2023/07/04 12:43:32;;;;;;;1.63;0.80;;;29.10;52.40;;;;;;6125697;23;88211;-68
2023/07/04 12:46:28;;;;;;;2.03;0.85;;;29.10;52.80;;;;;;6125674;23;87054;-69
2023/07/04 12:48:55;;;;;;;1.27;0.55;;;29.00;52.40;;;;;;6100870;23;88303;-69
2023/07/04 12:51:25;;;;;;;1.77;0.60;;;28.70;51.50;;;;;;6124755;23;87916;-68
2023/07/04 12:53:53;;;;;;;1.70;0.50;;;28.70;52.90;;;;;;6122972;23;88024;-69
2023/07/04 12:56:20;;;;;;;4.88;0.60;;;28.60;52.60;;;;;;6125062;23;87356;-68
2023/07/04 12:58:47;;;;;;;3.83;0.60;;;28.80;54.50;;;;;;6125436;23;88467;-70
2023/07/04 13:01:22;;;;;;;1.67;0.52;;;28.90;54.40;;;;;;6126476;23;88127;-70
2023/07/04 13:03:53;;;;;;;1.38;0.43;;;28.70;52.10;;;;;;6126354;23;87527;-69
2023/07/04 13:06:20;;;;;;;3.63;0.45;;;28.70;54.10;;;;;;6125948;23;87384;-69
2023/07/04 13:08:53;;;;;;;2.83;0.63;;;28.80;53.70;;;;;;6124151;23;88359;-70
2023/07/04 13:11:23;;;;;;;1.40;0.60;;;29.00;54.00;;;;;;6125769;23;88730;-69
2023/07/04 13:13:51;;;;;;;2.53;1.00;;;29.10;52.10;;;;;;6125916;23;87450;-70
2023/07/04 13:16:31;;;;;;;1.77;0.45;;;28.90;51.90;;;;;;6122704;23;87607;-70
2023/07/04 13:19:21;;;;;;;1.60;0.43;;;28.50;52.90;;;;;;6126289;23;88171;-70
2023/07/04 13:21:49;;;;;;;2.17;0.52;;;28.10;51.20;;;;;;6112981;23;87402;-69
2023/07/04 13:24:33;;;;;;;3.10;0.80;;;27.90;52.20;;;;;;6126546;23;87292;-69
2023/07/04 13:27:15;;;;;;;1.25;0.47;;;28.00;54.40;;;;;;6127739;23;86897;-69
2023/07/04 13:29:50;;;;;;;3.00;0.50;;;28.20;54.60;;;;;;6125621;23;88096;-68
2023/07/04 13:32:24;;;;;;;1.50;0.60;;;28.40;54.00;;;;;;6126608;23;87769;-68
2023/07/04 13:34:51;;;;;;;1.60;0.50;;;28.50;53.20;;;;;;6122553;23;88802;-70
2023/07/04 13:37:17;;;;;;;2.00;0.63;;;28.50;53.60;;;;;;6125456;23;87407;-68
2023/07/04 13:39:43;;;;;;;1.67;0.60;;;28.60;53.30;;;;;;6123179;23;87539;-71
2023/07/04 13:42:10;;;;;;;1.70;0.68;;;28.60;53.30;;;;;;6123815;23;87727;-68
2023/07/04 13:44:36;;;;;;;1.67;0.40;;;28.60;53.50;;;;;;6125227;23;87465;-68
2023/07/04 13:47:06;;;;;;;1.58;0.57;;;28.50;52.10;;;;;;6126534;23;87352;-71
2023/07/04 13:49:32;;;;;;;1.38;0.43;;;28.40;53.40;;;;;;6125453;23;88559;-70
2023/07/04 13:51:58;;;;;;;1.92;0.52;;;28.30;54.30;;;;;;6125861;23;88221;-69
2023/07/04 13:54:23;;;;;;;3.15;0.43;;;28.40;51.20;;;;;;6124013;23;87428;-69
2023/07/04 13:56:49;;;;;;;1.90;0.60;;;28.60;53.30;;;;;;6124339;23;87454;-68
2023/07/04 13:59:15;;;;;;;4.10;1.25;;;28.90;52.50;;;;;;6123907;23;89155;-69
2023/07/04 14:01:40;;;;;;;1.08;0.52;;;28.90;53.20;;;;;;6125727;23;88154;-68
2023/07/04 14:04:06;;;;;;;1.15;0.40;;;28.90;52.80;;;;;;6125412;23;87032;-69
2023/07/04 14:06:32;;;;;;;1.77;0.45;;;28.90;51.50;;;;;;6126841;23;87421;-68
2023/07/04 14:08:57;;;;;;;1.67;0.32;;;28.70;51.90;;;;;;6125341;23;88724;-70
2023/07/04 14:11:23;;;;;;;4.30;0.70;;;28.80;50.60;;;;;;6125993;23;87722;-71
2023/07/04 14:13:54;;;;;;;1.70;0.63;;;28.90;52.90;;;;;;6125766;23;87350;-69
2023/07/04 14:16:23;;;;;;;6.03;0.63;;;28.90;53.40;;;;;;6126559;23;86710;-70
2023/07/04 14:18:49;;;;;;;1.63;0.50;;;28.90;51.80;;;;;;6124036;23;87667;-71
2023/07/04 14:21:16;;;;;;;3.17;0.80;;;28.80;51.70;;;;;;6125137;23;87388;-71
2023/07/04 14:23:42;;;;;;;1.42;0.80;;;28.70;51.00;;;;;;6123162;23;88390;-68
2023/07/04 14:26:14;;;;;;;2.42;0.57;;;28.40;51.80;;;;;;6125064;23;87801;-69
2023/07/04 14:28:40;;;;;;;2.67;0.98;;;28.20;53.30;;;;;;6123461;23;88016;-72
2023/07/04 14:31:05;;;;;;;2.80;0.65;;;28.30;53.10;;;;;;6123045;23;87373;-70
2023/07/04 14:33:31;;;;;;;3.55;0.73;;;28.40;55.70;;;;;;6122595;23;87185;-70
2023/07/04 14:35:57;;;;;;;1.65;0.52;;;28.50;54.50;;;;;;6123600;23;87701;-69
2023/07/04 14:38:23;;;;;;;1.83;0.70;;;28.60;51.50;;;;;;6097495;23;89238;-68
2023/07/04 14:40:48;;;;;;;3.75;0.60;;;28.60;51.80;;;;;;6124384;23;87695;-71
2023/07/04 14:43:14;;;;;;;1.90;0.93;;;28.60;52.70;;;;;;6125047;23;87324;-71
2023/07/04 14:45:40;;;;;;;1.90;0.52;;;28.70;53.70;;;;;;6126303;23;87045;-70
2023/07/04 14:48:06;;;;;;;2.90;0.80;;;28.60;52.60;;;;;;6125974;23;88565;-70
2023/07/04 14:50:31;;;;;;;4.30;0.57;;;28.60;53.10;;;;;;6125190;23;87298;-68
2023/07/04 14:52:57;;;;;;;1.30;0.55;;;28.50;51.70;;;;;;6124923;23;87591;-70
2023/07/04 14:55:24;;;;;;;1.73;0.68;;;28.50;51.90;;;;;;6128006;23;87405;-69
2023/07/04 14:57:50;;;;;;;1.58;0.60;;;28.40;50.70;;;;;;6125997;23;88778;-69
2023/07/04 15:00:19;;;;;;;1.42;0.52;;;28.40;51.20;;;;;;6126127;23;88261;-69
2023/07/04 15:02:46;;;;;;;1.70;0.65;;;28.50;53.60;;;;;;6126011;23;87617;-69
2023/07/04 15:05:13;;;;;;;2.00;0.70;;;28.40;51.00;;;;;;6126364;23;86582;-68
2023/07/04 15:07:39;;;;;;;3.30;0.60;;;28.40;52.50;;;;;;6126751;23;87574;-70
2023/07/04 15:10:06;;;;;;;1.83;0.68;;;28.50;52.70;;;;;;6126191;23;88343;-67
2023/07/04 15:12:32;;;;;;;2.55;0.50;;;28.40;51.80;;;;;;6126910;23;88233;-67
2023/07/04 15:14:58;;;;;;;4.18;1.08;;;28.30;51.50;;;;;;6127366;23;86990;-71
2023/07/04 15:17:23;;;;;;;2.55;0.75;;;28.30;52.00;;;;;;6125553;22;87374;-68
2023/07/04 15:19:49;;;;;;;3.70;0.70;;;28.30;52.60;;;;;;6124839;23;87672;-70
2023/07/04 15:22:16;;;;;;;2.40;1.20;;;28.20;50.70;;;;;;6098739;23;86982;-69
2023/07/04 15:24:42;;;;;;;1.35;0.60;;;28.20;52.30;;;;;;6125683;23;87244;-69
2023/07/04 15:27:08;;;;;;;1.63;0.63;;;28.20;53.30;;;;;;6125973;23;87444;-70
2023/07/04 15:29:34;;;;;;;1.55;0.60;;;28.20;50.60;;;;;;6128271;23;86674;-68
2023/07/04 15:32:01;;;;;;;1.45;0.52;;;28.20;53.00;;;;;;6127075;23;87346;-69
2023/07/04 15:34:27;;;;;;;1.30;0.55;;;28.30;51.80;;;;;;6127623;23;87533;-69
2023/07/04 15:37:14;;;;;;;1.65;0.45;;;28.30;53.70;;;;;;6126129;23;89473;-69
2023/07/04 15:39:40;;;;;;;2.88;0.60;;;28.30;53.70;;;;;;6126157;23;87228;-70
2023/07/04 15:42:07;;;;;;;1.85;0.50;;;28.30;52.00;;;;;;6126429;23;87393;-69
2023/07/04 15:44:33;;;;;;;1.60;0.45;;;28.20;53.40;;;;;;6124090;23;87255;-70
2023/07/04 15:46:59;;;;;;;1.73;0.47;;;28.10;54.30;;;;;;6120901;23;87533;-71
2023/07/04 15:49:25;;;;;;;1.95;0.68;;;28.10;53.10;;;;;;6122000;23;88217;-68
2023/07/04 15:51:54;;;;;;;1.35;0.60;;;28.10;53.70;;;;;;6121013;23;87705;-69
2023/07/04 15:54:24;;;;;;;2.67;0.60;;;28.00;53.70;;;;;;6121143;23;86761;-69
2023/07/04 15:56:51;;;;;;;1.15;0.45;;;27.80;52.70;;;;;;6119801;23;87435;-69
2023/07/04 15:59:17;;;;;;;2.75;0.40;;;27.70;53.80;;;;;;6120248;23;88042;-70
2023/07/04 16:01:43;;;;;;;4.55;0.60;;;27.60;54.90;;;;;;6094680;23;88673;-68
2023/07/04 16:04:10;;;;;;;1.88;0.40;;;27.60;53.40;;;;;;6120774;23;87687;-69
2023/07/04 16:06:36;;;;;;;2.15;0.50;;;27.50;54.10;;;;;;6118826;23;88480;-72
2023/07/04 16:09:02;;;;;;;1.98;0.80;;;27.60;54.40;;;;;;6121360;23;87420;-70
2023/07/04 16:11:28;;;;;;;1.48;0.60;;;27.70;53.60;;;;;;6118215;23;87628;-70
2023/07/04 16:13:54;;;;;;;1.33;0.60;;;27.70;54.50;;;;;;6119971;23;87186;-68
2023/07/04 16:16:19;;;;;;;1.48;0.40;;;27.50;52.50;;;;;;6119466;23;88265;-70